sensor_id;sensor_type;location;lat;lon;timestamp;P1;durP1;ratioP1;P2;durP2;ratioP2
21258;SDS011;10787;53.364;-1.480;2024-03-02T00:01:23;26.90;;;15.70;;
21258;SDS011;10787;53.364;-1.480;2024-03-02T00:04:08;29.40;;;16.67;;
21258;SDS011;10787;53.364;-1.480;2024-03-02T00:06:52;26.90;;;15.20;;
21258;SDS011;10787;53.364;-1.480;2024-03-02T00:09:38;24.53;;;14.23;;
21258;SDS011;10787;53.364;-1.480;2024-03-02T00:12:23;26.47;;;14.33;;
21258;SDS011;10787;53.364;-1.480;2024-03-02T00:18:26;24.93;;;14.07;;
21258;SDS011;10787;53.364;-1.480;2024-03-02T00:21:13;22.27;;;12.97;;
21258;SDS011;10787;53.364;-1.480;2024-03-02T00:24:00;23.73;;;13.53;;
21258;SDS011;10787;53.364;-1.480;2024-03-02T00:26:49;24.27;;;13.83;;
21258;SDS011;10787;53.364;-1.480;2024-03-02T00:29:34;24.47;;;14.20;;
21258;SDS011;10787;53.364;-1.480;2024-03-02T00:32:19;22.77;;;13.30;;
21258;SDS011;10787;53.364;-1.480;2024-03-02T00:35:04;23.27;;;14.13;;
21258;SDS011;10787;53.364;-1.480;2024-03-02T00:37:49;23.93;;;13.67;;
21258;SDS011;10787;53.364;-1.480;2024-03-02T00:40:33;26.00;;;14.30;;
21258;SDS011;10787;53.364;-1.480;2024-03-02T00:46:40;25.47;;;14.43;;
21258;SDS011;10787;53.364;-1.480;2024-03-02T00:49:25;24.87;;;14.23;;
21258;SDS011;10787;53.364;-1.480;2024-03-02T00:52:11;23.63;;;13.80;;
21258;SDS011;10787;53.364;-1.480;2024-03-02T00:54:57;25.50;;;13.87;;
21258;SDS011;10787;53.364;-1.480;2024-03-02T00:57:41;26.07;;;14.87;;
21258;SDS011;10787;53.364;-1.480;2024-03-02T01:00:26;23.03;;;14.00;;
21258;SDS011;10787;53.364;-1.480;2024-03-02T01:03:11;27.43;;;14.47;;
21258;SDS011;10787;53.364;-1.480;2024-03-02T01:05:56;24.40;;;14.10;;
21258;SDS011;10787;53.364;-1.480;2024-03-02T01:08:40;26.10;;;14.73;;
21258;SDS011;10787;53.364;-1.480;2024-03-02T01:11:25;25.30;;;14.53;;
21258;SDS011;10787;53.364;-1.480;2024-03-02T01:14:09;25.33;;;15.07;;
21258;SDS011;10787;53.364;-1.480;2024-03-02T01:16:54;23.60;;;14.23;;
21258;SDS011;10787;53.364;-1.480;2024-03-02T01:19:38;26.10;;;15.37;;
21258;SDS011;10787;53.364;-1.480;2024-03-02T01:22:24;26.80;;;14.67;;
21258;SDS011;10787;53.364;-1.480;2024-03-02T01:25:09;24.33;;;14.43;;
21258;SDS011;10787;53.364;-1.480;2024-03-02T01:27:54;24.93;;;14.90;;
21258;SDS011;10787;53.364;-1.480;2024-03-02T01:30:38;25.23;;;15.07;;
21258;SDS011;10787;53.364;-1.480;2024-03-02T01:33:23;26.00;;;15.40;;
21258;SDS011;10787;53.364;-1.480;2024-03-02T01:36:07;25.47;;;14.87;;
21258;SDS011;10787;53.364;-1.480;2024-03-02T01:38:51;24.90;;;14.93;;
21258;SDS011;10787;53.364;-1.480;2024-03-02T01:41:36;25.77;;;14.60;;
21258;SDS011;10787;53.364;-1.480;2024-03-02T01:44:21;26.93;;;14.93;;
21258;SDS011;10787;53.364;-1.480;2024-03-02T01:47:05;23.20;;;14.60;;
21258;SDS011;10787;53.364;-1.480;2024-03-02T01:49:50;25.00;;;15.37;;
21258;SDS011;10787;53.364;-1.480;2024-03-02T01:52:35;27.77;;;15.07;;
21258;SDS011;10787;53.364;-1.480;2024-03-02T01:55:20;24.63;;;13.70;;
21258;SDS011;10787;53.364;-1.480;2024-03-02T01:58:04;25.07;;;14.17;;
21258;SDS011;10787;53.364;-1.480;2024-03-02T02:00:48;22.93;;;13.73;;
21258;SDS011;10787;53.364;-1.480;2024-03-02T02:03:34;26.90;;;13.40;;
21258;SDS011;10787;53.364;-1.480;2024-03-02T02:06:18;25.07;;;14.00;;
21258;SDS011;10787;53.364;-1.480;2024-03-02T02:09:02;26.10;;;14.00;;
21258;SDS011;10787;53.364;-1.480;2024-03-02T02:11:47;26.73;;;14.10;;
21258;SDS011;10787;53.364;-1.480;2024-03-02T02:14:32;22.73;;;13.23;;
21258;SDS011;10787;53.364;-1.480;2024-03-02T02:17:16;22.40;;;12.90;;
21258;SDS011;10787;53.364;-1.480;2024-03-02T02:20:01;21.70;;;13.07;;
21258;SDS011;10787;53.364;-1.480;2024-03-02T02:22:55;20.17;;;12.33;;
21258;SDS011;10787;53.364;-1.480;2024-03-02T02:25:39;21.80;;;12.20;;
21258;SDS011;10787;53.364;-1.480;2024-03-02T02:28:24;21.33;;;12.90;;
21258;SDS011;10787;53.364;-1.480;2024-03-02T02:31:08;22.73;;;13.10;;
21258;SDS011;10787;53.364;-1.480;2024-03-02T02:33:52;21.70;;;13.10;;
21258;SDS011;10787;53.364;-1.480;2024-03-02T02:36:37;24.97;;;13.67;;
21258;SDS011;10787;53.364;-1.480;2024-03-02T02:39:23;23.37;;;13.47;;
21258;SDS011;10787;53.364;-1.480;2024-03-02T02:42:08;22.60;;;14.03;;
21258;SDS011;10787;53.364;-1.480;2024-03-02T02:44:52;23.00;;;14.20;;
21258;SDS011;10787;53.364;-1.480;2024-03-02T02:47:37;25.73;;;14.10;;
21258;SDS011;10787;53.364;-1.480;2024-03-02T02:50:21;24.03;;;13.57;;
21258;SDS011;10787;53.364;-1.480;2024-03-02T02:53:05;21.73;;;12.93;;
21258;SDS011;10787;53.364;-1.480;2024-03-02T02:55:53;23.47;;;14.17;;
21258;SDS011;10787;53.364;-1.480;2024-03-02T02:58:37;23.03;;;13.77;;
21258;SDS011;10787;53.364;-1.480;2024-03-02T03:01:23;24.23;;;13.80;;
21258;SDS011;10787;53.364;-1.480;2024-03-02T03:04:08;24.20;;;14.00;;
21258;SDS011;10787;53.364;-1.480;2024-03-02T03:06:52;24.40;;;13.83;;
21258;SDS011;10787;53.364;-1.480;2024-03-02T03:09:37;22.77;;;13.50;;
21258;SDS011;10787;53.364;-1.480;2024-03-02T03:12:22;21.67;;;13.23;;
21258;SDS011;10787;53.364;-1.480;2024-03-02T03:15:06;22.80;;;13.80;;
21258;SDS011;10787;53.364;-1.480;2024-03-02T03:17:52;23.30;;;14.30;;
21258;SDS011;10787;53.364;-1.480;2024-03-02T03:20:36;24.13;;;13.77;;
21258;SDS011;10787;53.364;-1.480;2024-03-02T03:23:20;24.83;;;14.20;;
21258;SDS011;10787;53.364;-1.480;2024-03-02T03:26:05;25.80;;;14.40;;
21258;SDS011;10787;53.364;-1.480;2024-03-02T03:28:49;22.57;;;13.60;;
21258;SDS011;10787;53.364;-1.480;2024-03-02T03:31:33;24.80;;;14.00;;
21258;SDS011;10787;53.364;-1.480;2024-03-02T03:34:17;23.33;;;14.67;;
21258;SDS011;10787;53.364;-1.480;2024-03-02T03:37:02;25.00;;;14.37;;
21258;SDS011;10787;53.364;-1.480;2024-03-02T03:39:46;22.70;;;14.27;;
21258;SDS011;10787;53.364;-1.480;2024-03-02T03:42:30;25.67;;;14.67;;
21258;SDS011;10787;53.364;-1.480;2024-03-02T03:45:14;20.97;;;13.57;;
21258;SDS011;10787;53.364;-1.480;2024-03-02T03:47:58;24.07;;;14.50;;
21258;SDS011;10787;53.364;-1.480;2024-03-02T03:50:42;25.20;;;14.03;;
21258;SDS011;10787;53.364;-1.480;2024-03-02T03:53:26;23.07;;;13.77;;
21258;SDS011;10787;53.364;-1.480;2024-03-02T03:56:11;25.53;;;13.93;;
21258;SDS011;10787;53.364;-1.480;2024-03-02T03:58:55;21.77;;;14.13;;
21258;SDS011;10787;53.364;-1.480;2024-03-02T04:01:40;23.40;;;14.97;;
21258;SDS011;10787;53.364;-1.480;2024-03-02T04:04:24;25.90;;;14.83;;
21258;SDS011;10787;53.364;-1.480;2024-03-02T04:07:08;25.63;;;15.27;;
21258;SDS011;10787;53.364;-1.480;2024-03-02T04:09:52;22.70;;;14.43;;
21258;SDS011;10787;53.364;-1.480;2024-03-02T04:12:37;25.77;;;15.83;;
21258;SDS011;10787;53.364;-1.480;2024-03-02T04:15:21;23.93;;;15.43;;
21258;SDS011;10787;53.364;-1.480;2024-03-02T04:18:07;30.20;;;16.40;;
21258;SDS011;10787;53.364;-1.480;2024-03-02T04:20:51;27.40;;;16.30;;
21258;SDS011;10787;53.364;-1.480;2024-03-02T04:23:35;25.53;;;16.27;;
21258;SDS011;10787;53.364;-1.480;2024-03-02T04:26:19;24.60;;;14.83;;
21258;SDS011;10787;53.364;-1.480;2024-03-02T04:29:05;24.50;;;14.67;;
21258;SDS011;10787;53.364;-1.480;2024-03-02T04:31:49;26.70;;;14.37;;
21258;SDS011;10787;53.364;-1.480;2024-03-02T04:34:33;26.53;;;15.50;;
21258;SDS011;10787;53.364;-1.480;2024-03-02T04:37:17;25.97;;;14.70;;
21258;SDS011;10787;53.364;-1.480;2024-03-02T04:40:01;24.37;;;13.90;;
21258;SDS011;10787;53.364;-1.480;2024-03-02T04:42:46;25.10;;;14.60;;
21258;SDS011;10787;53.364;-1.480;2024-03-02T04:45:30;27.83;;;16.03;;
21258;SDS011;10787;53.364;-1.480;2024-03-02T04:48:14;29.53;;;16.00;;
21258;SDS011;10787;53.364;-1.480;2024-03-02T04:50:59;32.80;;;17.87;;
21258;SDS011;10787;53.364;-1.480;2024-03-02T04:53:43;29.27;;;17.57;;
21258;SDS011;10787;53.364;-1.480;2024-03-02T04:56:28;31.60;;;18.33;;
21258;SDS011;10787;53.364;-1.480;2024-03-02T04:59:16;32.80;;;18.47;;
21258;SDS011;10787;53.364;-1.480;2024-03-02T05:02:01;35.00;;;18.53;;
21258;SDS011;10787;53.364;-1.480;2024-03-02T05:04:46;33.20;;;18.97;;
21258;SDS011;10787;53.364;-1.480;2024-03-02T05:07:31;32.13;;;18.47;;
21258;SDS011;10787;53.364;-1.480;2024-03-02T05:10:15;31.33;;;18.57;;
21258;SDS011;10787;53.364;-1.480;2024-03-02T05:13:00;31.10;;;18.37;;
21258;SDS011;10787;53.364;-1.480;2024-03-02T05:15:44;35.03;;;19.47;;
21258;SDS011;10787;53.364;-1.480;2024-03-02T05:18:28;33.50;;;18.37;;
21258;SDS011;10787;53.364;-1.480;2024-03-02T05:21:13;33.47;;;18.47;;
21258;SDS011;10787;53.364;-1.480;2024-03-02T05:23:58;33.63;;;20.20;;
21258;SDS011;10787;53.364;-1.480;2024-03-02T05:26:42;35.33;;;20.80;;
21258;SDS011;10787;53.364;-1.480;2024-03-02T05:29:27;35.20;;;20.40;;
21258;SDS011;10787;53.364;-1.480;2024-03-02T05:32:11;37.60;;;21.73;;
21258;SDS011;10787;53.364;-1.480;2024-03-02T05:34:55;34.47;;;20.57;;
21258;SDS011;10787;53.364;-1.480;2024-03-02T05:37:39;37.60;;;21.30;;
21258;SDS011;10787;53.364;-1.480;2024-03-02T05:40:23;36.63;;;21.03;;
21258;SDS011;10787;53.364;-1.480;2024-03-02T05:43:07;36.20;;;19.93;;
21258;SDS011;10787;53.364;-1.480;2024-03-02T05:45:52;36.90;;;20.30;;
21258;SDS011;10787;53.364;-1.480;2024-03-02T05:48:36;35.13;;;19.83;;
21258;SDS011;10787;53.364;-1.480;2024-03-02T05:51:20;34.37;;;19.47;;
21258;SDS011;10787;53.364;-1.480;2024-03-02T05:54:04;35.30;;;19.97;;
21258;SDS011;10787;53.364;-1.480;2024-03-02T05:56:49;38.90;;;21.43;;
21258;SDS011;10787;53.364;-1.480;2024-03-02T05:59:33;33.63;;;19.13;;
21258;SDS011;10787;53.364;-1.480;2024-03-02T06:02:17;38.03;;;19.60;;
21258;SDS011;10787;53.364;-1.480;2024-03-02T06:05:02;34.90;;;19.53;;
21258;SDS011;10787;53.364;-1.480;2024-03-02T06:07:46;37.63;;;19.93;;
21258;SDS011;10787;53.364;-1.480;2024-03-02T06:10:30;36.03;;;19.57;;
21258;SDS011;10787;53.364;-1.480;2024-03-02T06:13:15;36.30;;;20.33;;
21258;SDS011;10787;53.364;-1.480;2024-03-02T06:16:00;39.43;;;20.57;;
21258;SDS011;10787;53.364;-1.480;2024-03-02T06:18:44;37.40;;;20.30;;
21258;SDS011;10787;53.364;-1.480;2024-03-02T06:21:28;37.37;;;19.80;;
21258;SDS011;10787;53.364;-1.480;2024-03-02T06:24:13;34.23;;;18.40;;
21258;SDS011;10787;53.364;-1.480;2024-03-02T06:26:57;36.63;;;18.70;;
21258;SDS011;10787;53.364;-1.480;2024-03-02T06:29:42;36.20;;;18.30;;
21258;SDS011;10787;53.364;-1.480;2024-03-02T06:32:26;33.43;;;17.17;;
21258;SDS011;10787;53.364;-1.480;2024-03-02T06:35:11;32.83;;;17.10;;
21258;SDS011;10787;53.364;-1.480;2024-03-02T06:37:56;36.33;;;17.33;;
21258;SDS011;10787;53.364;-1.480;2024-03-02T06:40:40;31.13;;;16.57;;
21258;SDS011;10787;53.364;-1.480;2024-03-02T06:43:25;33.77;;;17.23;;
21258;SDS011;10787;53.364;-1.480;2024-03-02T06:46:10;34.60;;;17.20;;
21258;SDS011;10787;53.364;-1.480;2024-03-02T06:48:58;32.50;;;16.63;;
21258;SDS011;10787;53.364;-1.480;2024-03-02T06:51:42;41.80;;;17.47;;
21258;SDS011;10787;53.364;-1.480;2024-03-02T06:54:27;36.17;;;17.80;;
21258;SDS011;10787;53.364;-1.480;2024-03-02T06:57:11;35.87;;;18.30;;
21258;SDS011;10787;53.364;-1.480;2024-03-02T06:59:55;39.13;;;18.70;;
21258;SDS011;10787;53.364;-1.480;2024-03-02T07:02:41;39.63;;;19.70;;
21258;SDS011;10787;53.364;-1.480;2024-03-02T07:05:26;36.57;;;19.17;;
21258;SDS011;10787;53.364;-1.480;2024-03-02T07:08:10;37.80;;;18.57;;
21258;SDS011;10787;53.364;-1.480;2024-03-02T07:10:54;36.70;;;19.40;;
21258;SDS011;10787;53.364;-1.480;2024-03-02T07:13:38;38.00;;;19.47;;
21258;SDS011;10787;53.364;-1.480;2024-03-02T07:16:22;36.90;;;18.80;;
21258;SDS011;10787;53.364;-1.480;2024-03-02T07:19:13;45.37;;;20.83;;
21258;SDS011;10787;53.364;-1.480;2024-03-02T07:21:57;34.37;;;18.27;;
21258;SDS011;10787;53.364;-1.480;2024-03-02T07:24:42;34.27;;;19.30;;
21258;SDS011;10787;53.364;-1.480;2024-03-02T07:27:27;35.03;;;18.43;;
21258;SDS011;10787;53.364;-1.480;2024-03-02T07:30:13;52.50;;;19.80;;
21258;SDS011;10787;53.364;-1.480;2024-03-02T07:32:59;36.40;;;18.63;;
21258;SDS011;10787;53.364;-1.480;2024-03-02T07:35:43;34.97;;;18.30;;
21258;SDS011;10787;53.364;-1.480;2024-03-02T07:38:31;36.43;;;17.57;;
21258;SDS011;10787;53.364;-1.480;2024-03-02T07:41:17;33.20;;;17.77;;
21258;SDS011;10787;53.364;-1.480;2024-03-02T07:44:01;32.23;;;18.13;;
21258;SDS011;10787;53.364;-1.480;2024-03-02T07:46:46;30.07;;;16.43;;
21258;SDS011;10787;53.364;-1.480;2024-03-02T07:49:33;33.10;;;16.40;;
21258;SDS011;10787;53.364;-1.480;2024-03-02T07:52:18;29.37;;;16.37;;
21258;SDS011;10787;53.364;-1.480;2024-03-02T07:55:03;45.17;;;17.10;;
21258;SDS011;10787;53.364;-1.480;2024-03-02T07:57:47;28.03;;;15.43;;
21258;SDS011;10787;53.364;-1.480;2024-03-02T08:00:32;39.10;;;16.30;;
21258;SDS011;10787;53.364;-1.480;2024-03-02T08:03:16;30.97;;;15.90;;
21258;SDS011;10787;53.364;-1.480;2024-03-02T08:06:01;27.03;;;15.37;;
21258;SDS011;10787;53.364;-1.480;2024-03-02T08:08:46;24.77;;;14.77;;
21258;SDS011;10787;53.364;-1.480;2024-03-02T08:11:30;24.60;;;14.73;;
21258;SDS011;10787;53.364;-1.480;2024-03-02T08:14:14;23.57;;;14.00;;
21258;SDS011;10787;53.364;-1.480;2024-03-02T08:16:59;27.13;;;14.30;;
21258;SDS011;10787;53.364;-1.480;2024-03-02T08:19:45;23.10;;;14.13;;
21258;SDS011;10787;53.364;-1.480;2024-03-02T08:22:31;26.37;;;14.60;;
21258;SDS011;10787;53.364;-1.480;2024-03-02T08:25:16;28.63;;;15.50;;
21258;SDS011;10787;53.364;-1.480;2024-03-02T08:28:00;26.23;;;13.97;;
21258;SDS011;10787;53.364;-1.480;2024-03-02T08:30:45;23.80;;;13.07;;
21258;SDS011;10787;53.364;-1.480;2024-03-02T08:33:29;20.67;;;12.77;;
21258;SDS011;10787;53.364;-1.480;2024-03-02T08:36:13;20.17;;;12.60;;
21258;SDS011;10787;53.364;-1.480;2024-03-02T08:38:58;22.63;;;13.47;;
21258;SDS011;10787;53.364;-1.480;2024-03-02T08:41:43;22.27;;;12.70;;
21258;SDS011;10787;53.364;-1.480;2024-03-02T08:44:28;20.33;;;12.60;;
21258;SDS011;10787;53.364;-1.480;2024-03-02T08:47:12;22.10;;;11.90;;
21258;SDS011;10787;53.364;-1.480;2024-03-02T08:49:57;16.90;;;11.33;;
21258;SDS011;10787;53.364;-1.480;2024-03-02T08:52:41;19.70;;;10.83;;
21258;SDS011;10787;53.364;-1.480;2024-03-02T08:55:26;19.83;;;10.83;;
21258;SDS011;10787;53.364;-1.480;2024-03-02T08:58:11;16.17;;;10.33;;
21258;SDS011;10787;53.364;-1.480;2024-03-02T09:00:56;16.93;;;9.03;;
21258;SDS011;10787;53.364;-1.480;2024-03-02T09:03:41;36.10;;;10.43;;
21258;SDS011;10787;53.364;-1.480;2024-03-02T09:06:28;16.40;;;8.90;;
21258;SDS011;10787;53.364;-1.480;2024-03-02T09:09:13;17.83;;;8.90;;
21258;SDS011;10787;53.364;-1.480;2024-03-02T09:11:57;15.03;;;9.10;;
21258;SDS011;10787;53.364;-1.480;2024-03-02T09:14:41;13.30;;;8.47;;
21258;SDS011;10787;53.364;-1.480;2024-03-02T09:17:26;13.43;;;7.87;;
21258;SDS011;10787;53.364;-1.480;2024-03-02T09:20:10;16.60;;;9.13;;
21258;SDS011;10787;53.364;-1.480;2024-03-02T09:22:54;13.47;;;7.60;;
21258;SDS011;10787;53.364;-1.480;2024-03-02T09:25:39;14.07;;;8.30;;
21258;SDS011;10787;53.364;-1.480;2024-03-02T09:28:23;13.87;;;7.43;;
21258;SDS011;10787;53.364;-1.480;2024-03-02T09:31:07;13.83;;;7.50;;
21258;SDS011;10787;53.364;-1.480;2024-03-02T09:33:52;13.93;;;6.93;;
21258;SDS011;10787;53.364;-1.480;2024-03-02T09:36:36;12.17;;;6.80;;
21258;SDS011;10787;53.364;-1.480;2024-03-02T09:39:20;14.93;;;6.50;;
21258;SDS011;10787;53.364;-1.480;2024-03-02T09:42:05;13.23;;;6.90;;
21258;SDS011;10787;53.364;-1.480;2024-03-02T09:44:49;14.07;;;6.93;;
21258;SDS011;10787;53.364;-1.480;2024-03-02T09:47:34;18.67;;;7.00;;
21258;SDS011;10787;53.364;-1.480;2024-03-02T09:50:19;15.57;;;7.37;;
21258;SDS011;10787;53.364;-1.480;2024-03-02T09:53:03;13.93;;;5.97;;
21258;SDS011;10787;53.364;-1.480;2024-03-02T09:55:49;12.77;;;6.30;;
21258;SDS011;10787;53.364;-1.480;2024-03-02T09:58:33;13.90;;;6.10;;
21258;SDS011;10787;53.364;-1.480;2024-03-02T10:01:17;13.67;;;5.80;;
21258;SDS011;10787;53.364;-1.480;2024-03-02T10:04:01;9.50;;;5.70;;
21258;SDS011;10787;53.364;-1.480;2024-03-02T10:09:54;12.80;;;5.53;;
21258;SDS011;10787;53.364;-1.480;2024-03-02T10:12:38;14.43;;;5.70;;
21258;SDS011;10787;53.364;-1.480;2024-03-02T10:15:25;14.30;;;5.33;;
21258;SDS011;10787;53.364;-1.480;2024-03-02T10:18:10;14.43;;;5.73;;
21258;SDS011;10787;53.364;-1.480;2024-03-02T10:20:55;18.37;;;6.73;;
21258;SDS011;10787;53.364;-1.480;2024-03-02T10:24:06;13.80;;;5.53;;
21258;SDS011;10787;53.364;-1.480;2024-03-02T10:26:51;29.90;;;5.57;;
21258;SDS011;10787;53.364;-1.480;2024-03-02T10:29:39;13.13;;;5.30;;
21258;SDS011;10787;53.364;-1.480;2024-03-02T10:32:25;13.50;;;5.43;;
21258;SDS011;10787;53.364;-1.480;2024-03-02T10:35:10;13.80;;;5.40;;
21258;SDS011;10787;53.364;-1.480;2024-03-02T10:37:54;54.17;;;9.20;;
21258;SDS011;10787;53.364;-1.480;2024-03-02T10:40:39;16.47;;;5.90;;
21258;SDS011;10787;53.364;-1.480;2024-03-02T10:43:23;16.07;;;6.07;;
21258;SDS011;10787;53.364;-1.480;2024-03-02T10:46:07;12.30;;;5.07;;
21258;SDS011;10787;53.364;-1.480;2024-03-02T10:48:52;12.63;;;5.13;;
21258;SDS011;10787;53.364;-1.480;2024-03-02T10:51:36;11.77;;;4.40;;
21258;SDS011;10787;53.364;-1.480;2024-03-02T10:54:21;53.17;;;8.27;;
21258;SDS011;10787;53.364;-1.480;2024-03-02T10:57:10;20.13;;;6.00;;
21258;SDS011;10787;53.364;-1.480;2024-03-02T10:59:57;23.73;;;6.60;;
21258;SDS011;10787;53.364;-1.480;2024-03-02T11:02:50;12.07;;;5.23;;
21258;SDS011;10787;53.364;-1.480;2024-03-02T11:05:43;13.77;;;5.20;;
21258;SDS011;10787;53.364;-1.480;2024-03-02T11:08:28;13.33;;;5.97;;
21258;SDS011;10787;53.364;-1.480;2024-03-02T11:11:18;22.20;;;5.37;;
21258;SDS011;10787;53.364;-1.480;2024-03-02T11:14:13;14.20;;;4.83;;
21258;SDS011;10787;53.364;-1.480;2024-03-02T11:17:01;12.37;;;4.70;;
21258;SDS011;10787;53.364;-1.480;2024-03-02T11:19:47;16.90;;;4.83;;
21258;SDS011;10787;53.364;-1.480;2024-03-02T11:22:31;23.17;;;8.20;;
21258;SDS011;10787;53.364;-1.480;2024-03-02T11:25:25;11.73;;;4.50;;
21258;SDS011;10787;53.364;-1.480;2024-03-02T11:28:11;13.70;;;4.77;;
21258;SDS011;10787;53.364;-1.480;2024-03-02T11:30:55;15.93;;;4.67;;
21258;SDS011;10787;53.364;-1.480;2024-03-02T11:33:40;15.67;;;4.70;;
21258;SDS011;10787;53.364;-1.480;2024-03-02T11:36:25;10.57;;;4.37;;
21258;SDS011;10787;53.364;-1.480;2024-03-02T11:39:09;13.67;;;5.17;;
21258;SDS011;10787;53.364;-1.480;2024-03-02T11:41:57;13.60;;;4.13;;
21258;SDS011;10787;53.364;-1.480;2024-03-02T11:44:46;13.00;;;4.90;;
21258;SDS011;10787;53.364;-1.480;2024-03-02T11:47:32;13.97;;;4.70;;
21258;SDS011;10787;53.364;-1.480;2024-03-02T11:50:29;13.17;;;4.90;;
21258;SDS011;10787;53.364;-1.480;2024-03-02T11:53:14;14.87;;;4.90;;
21258;SDS011;10787;53.364;-1.480;2024-03-02T11:55:59;11.80;;;4.23;;
21258;SDS011;10787;53.364;-1.480;2024-03-02T11:58:46;14.50;;;4.40;;
21258;SDS011;10787;53.364;-1.480;2024-03-02T12:01:33;12.97;;;4.30;;
21258;SDS011;10787;53.364;-1.480;2024-03-02T12:04:18;10.27;;;4.40;;
21258;SDS011;10787;53.364;-1.480;2024-03-02T12:07:03;14.57;;;4.90;;
21258;SDS011;10787;53.364;-1.480;2024-03-02T12:09:47;13.07;;;4.80;;
21258;SDS011;10787;53.364;-1.480;2024-03-02T12:12:32;12.47;;;5.10;;
21258;SDS011;10787;53.364;-1.480;2024-03-02T12:15:16;12.77;;;3.90;;
21258;SDS011;10787;53.364;-1.480;2024-03-02T12:18:01;12.60;;;3.77;;
21258;SDS011;10787;53.364;-1.480;2024-03-02T12:20:45;13.13;;;4.03;;
21258;SDS011;10787;53.364;-1.480;2024-03-02T12:23:32;10.53;;;3.60;;
21258;SDS011;10787;53.364;-1.480;2024-03-02T12:26:16;9.27;;;3.73;;
21258;SDS011;10787;53.364;-1.480;2024-03-02T12:29:00;9.47;;;3.40;;
21258;SDS011;10787;53.364;-1.480;2024-03-02T12:31:45;14.83;;;3.77;;
21258;SDS011;10787;53.364;-1.480;2024-03-02T12:34:31;7.73;;;3.90;;
21258;SDS011;10787;53.364;-1.480;2024-03-02T12:37:16;10.50;;;3.37;;
21258;SDS011;10787;53.364;-1.480;2024-03-02T12:40:00;5.77;;;2.87;;
21258;SDS011;10787;53.364;-1.480;2024-03-02T12:42:45;7.43;;;2.70;;
21258;SDS011;10787;53.364;-1.480;2024-03-02T12:45:30;6.27;;;3.27;;
21258;SDS011;10787;53.364;-1.480;2024-03-02T12:48:14;3.80;;;2.17;;
21258;SDS011;10787;53.364;-1.480;2024-03-02T12:50:58;3.90;;;2.03;;
21258;SDS011;10787;53.364;-1.480;2024-03-02T12:53:42;3.67;;;2.30;;
21258;SDS011;10787;53.364;-1.480;2024-03-02T12:56:27;3.77;;;1.80;;
21258;SDS011;10787;53.364;-1.480;2024-03-02T12:59:21;1.38;;;0.90;;
21258;SDS011;10787;53.364;-1.480;2024-03-02T13:02:29;1.90;;;1.17;;
21258;SDS011;10787;53.364;-1.480;2024-03-02T13:05:14;1.40;;;0.90;;
21258;SDS011;10787;53.364;-1.480;2024-03-02T13:07:59;1.17;;;0.52;;
21258;SDS011;10787;53.364;-1.480;2024-03-02T13:10:58;1.10;;;0.70;;
21258;SDS011;10787;53.364;-1.480;2024-03-02T13:13:43;2.23;;;0.90;;
21258;SDS011;10787;53.364;-1.480;2024-03-02T13:16:28;2.00;;;1.00;;
21258;SDS011;10787;53.364;-1.480;2024-03-02T13:19:12;1.40;;;0.80;;
21258;SDS011;10787;53.364;-1.480;2024-03-02T13:21:57;1.53;;;0.90;;
21258;SDS011;10787;53.364;-1.480;2024-03-02T13:24:42;2.50;;;1.40;;
21258;SDS011;10787;53.364;-1.480;2024-03-02T13:27:26;3.57;;;1.57;;
21258;SDS011;10787;53.364;-1.480;2024-03-02T13:30:10;6.20;;;3.43;;
21258;SDS011;10787;53.364;-1.480;2024-03-02T13:32:54;2.10;;;1.30;;
21258;SDS011;10787;53.364;-1.480;2024-03-02T13:35:39;2.20;;;1.00;;
21258;SDS011;10787;53.364;-1.480;2024-03-02T13:38:23;1.53;;;0.97;;
21258;SDS011;10787;53.364;-1.480;2024-03-02T13:41:07;3.17;;;1.17;;
21258;SDS011;10787;53.364;-1.480;2024-03-02T13:43:52;1.80;;;0.87;;
21258;SDS011;10787;53.364;-1.480;2024-03-02T13:46:36;3.20;;;1.20;;
21258;SDS011;10787;53.364;-1.480;2024-03-02T13:49:20;1.93;;;1.20;;
21258;SDS011;10787;53.364;-1.480;2024-03-02T13:52:05;4.40;;;1.30;;
21258;SDS011;10787;53.364;-1.480;2024-03-02T13:55:00;2.50;;;1.33;;
21258;SDS011;10787;53.364;-1.480;2024-03-02T13:57:44;2.80;;;1.20;;
21258;SDS011;10787;53.364;-1.480;2024-03-02T14:00:30;3.83;;;1.30;;
21258;SDS011;10787;53.364;-1.480;2024-03-02T14:03:14;4.23;;;1.20;;
21258;SDS011;10787;53.364;-1.480;2024-03-02T14:05:59;2.07;;;1.30;;
21258;SDS011;10787;53.364;-1.480;2024-03-02T14:08:43;2.37;;;1.30;;
21258;SDS011;10787;53.364;-1.480;2024-03-02T14:11:28;3.53;;;1.40;;
21258;SDS011;10787;53.364;-1.480;2024-03-02T14:14:13;2.13;;;1.10;;
21258;SDS011;10787;53.364;-1.480;2024-03-02T14:16:57;3.27;;;1.30;;
21258;SDS011;10787;53.364;-1.480;2024-03-02T14:19:49;2.77;;;1.10;;
21258;SDS011;10787;53.364;-1.480;2024-03-02T14:22:33;2.73;;;1.20;;
21258;SDS011;10787;53.364;-1.480;2024-03-02T14:25:17;2.73;;;1.10;;
21258;SDS011;10787;53.364;-1.480;2024-03-02T14:28:03;2.60;;;1.20;;
21258;SDS011;10787;53.364;-1.480;2024-03-02T14:30:47;3.33;;;1.70;;
21258;SDS011;10787;53.364;-1.480;2024-03-02T14:33:31;3.77;;;1.77;;
21258;SDS011;10787;53.364;-1.480;2024-03-02T14:36:16;2.43;;;1.53;;
21258;SDS011;10787;53.364;-1.480;2024-03-02T14:39:00;2.23;;;1.30;;
21258;SDS011;10787;53.364;-1.480;2024-03-02T14:41:44;1.40;;;1.00;;
21258;SDS011;10787;53.364;-1.480;2024-03-02T14:44:29;1.43;;;1.10;;
21258;SDS011;10787;53.364;-1.480;2024-03-02T14:47:13;1.53;;;1.10;;
21258;SDS011;10787;53.364;-1.480;2024-03-02T14:49:58;1.93;;;1.10;;
21258;SDS011;10787;53.364;-1.480;2024-03-02T14:52:43;2.27;;;1.30;;
21258;SDS011;10787;53.364;-1.480;2024-03-02T14:55:29;1.60;;;1.27;;
21258;SDS011;10787;53.364;-1.480;2024-03-02T14:58:14;1.70;;;1.30;;
21258;SDS011;10787;53.364;-1.480;2024-03-02T15:00:59;2.23;;;1.20;;
21258;SDS011;10787;53.364;-1.480;2024-03-02T15:03:44;2.77;;;1.70;;
21258;SDS011;10787;53.364;-1.480;2024-03-02T15:06:28;2.00;;;1.27;;
21258;SDS011;10787;53.364;-1.480;2024-03-02T15:09:12;2.00;;;1.33;;
21258;SDS011;10787;53.364;-1.480;2024-03-02T15:11:57;4.00;;;1.80;;
21258;SDS011;10787;53.364;-1.480;2024-03-02T15:14:41;2.90;;;1.60;;
21258;SDS011;10787;53.364;-1.480;2024-03-02T15:17:46;2.50;;;1.80;;
21258;SDS011;10787;53.364;-1.480;2024-03-02T15:20:30;3.80;;;2.10;;
21258;SDS011;10787;53.364;-1.480;2024-03-02T15:23:14;2.50;;;2.00;;
21258;SDS011;10787;53.364;-1.480;2024-03-02T15:25:59;2.70;;;1.43;;
21258;SDS011;10787;53.364;-1.480;2024-03-02T15:28:43;3.70;;;1.23;;
21258;SDS011;10787;53.364;-1.480;2024-03-02T15:31:27;1.83;;;1.37;;
21258;SDS011;10787;53.364;-1.480;2024-03-02T15:34:12;1.67;;;1.30;;
21258;SDS011;10787;53.364;-1.480;2024-03-02T15:36:59;2.27;;;1.50;;
21258;SDS011;10787;53.364;-1.480;2024-03-02T15:39:51;2.53;;;1.57;;
21258;SDS011;10787;53.364;-1.480;2024-03-02T15:42:50;3.00;;;2.60;;
21258;SDS011;10787;53.364;-1.480;2024-03-02T15:45:35;2.37;;;1.80;;
21258;SDS011;10787;53.364;-1.480;2024-03-02T15:48:19;2.50;;;1.87;;
21258;SDS011;10787;53.364;-1.480;2024-03-02T15:51:04;2.43;;;1.57;;
21258;SDS011;10787;53.364;-1.480;2024-03-02T15:53:48;2.17;;;1.40;;
21258;SDS011;10787;53.364;-1.480;2024-03-02T15:56:33;2.77;;;1.20;;
21258;SDS011;10787;53.364;-1.480;2024-03-02T15:59:17;1.83;;;1.20;;
21258;SDS011;10787;53.364;-1.480;2024-03-02T16:02:02;1.13;;;0.83;;
21258;SDS011;10787;53.364;-1.480;2024-03-02T16:04:47;1.50;;;0.90;;
21258;SDS011;10787;53.364;-1.480;2024-03-02T16:07:31;0.90;;;0.73;;
21258;SDS011;10787;53.364;-1.480;2024-03-02T16:10:15;1.30;;;0.90;;
21258;SDS011;10787;53.364;-1.480;2024-03-02T16:13:00;1.00;;;0.80;;